createdAt,value
2023-08-09T00:00:56.745Z,46.18
2023-08-09T00:01:56.785Z,45.20
2023-08-09T00:02:56.855Z,50.14
2023-08-09T00:03:56.920Z,44.02
2023-08-09T00:04:56.925Z,46.80
2023-08-09T00:05:56.968Z,46.51
2023-08-09T00:06:57.021Z,45.49
2023-08-09T00:07:57.061Z,43.62
2023-08-09T00:08:57.103Z,48.58
2023-08-09T00:09:57.159Z,46.22
2023-08-09T00:10:57.204Z,47.69
2023-08-09T00:11:57.251Z,44.24
2023-08-09T00:12:57.299Z,44.63
2023-08-09T00:13:57.331Z,48.34
2023-08-09T00:14:57.385Z,49.45
2023-08-09T00:15:57.464Z,47.43
2023-08-09T00:16:57.461Z,47.16
2023-08-09T00:17:57.563Z,49.00
2023-08-09T00:18:57.569Z,47.58
2023-08-09T00:19:57.672Z,49.89
2023-08-09T00:20:58.177Z,51.94
2023-08-09T00:21:57.699Z,45.07
2023-08-09T00:22:57.735Z,48.39
2023-08-09T00:23:57.803Z,46.51
2023-08-09T00:24:57.831Z,47.88
2023-08-09T00:25:57.885Z,47.78
2023-08-09T00:26:57.930Z,49.04
2023-08-09T00:27:58.016Z,45.64
2023-08-09T00:28:58.020Z,45.75
2023-08-09T00:29:58.068Z,50.48
2023-08-09T00:30:58.128Z,46.06
2023-08-09T00:31:58.147Z,48.93
2023-08-09T00:32:58.242Z,49.36
2023-08-09T00:33:58.237Z,48.09
2023-08-09T00:34:58.294Z,49.41
2023-08-09T00:35:58.362Z,49.28
2023-08-09T00:36:58.386Z,49.90
2023-08-09T00:37:58.421Z,46.85
2023-08-09T00:38:58.472Z,45.65
2023-08-09T00:39:58.523Z,48.37
2023-08-09T00:40:58.569Z,50.33
2023-08-09T00:41:58.608Z,48.70
2023-08-09T00:42:58.649Z,49.41
2023-08-09T00:43:58.725Z,51.76
2023-08-09T00:44:58.758Z,52.27
2023-08-09T00:45:58.841Z,48.24
2023-08-09T00:46:58.913Z,52.48
2023-08-09T00:47:58.906Z,50.19
2023-08-09T00:48:58.919Z,50.92
2023-08-09T00:49:58.970Z,50.17
2023-08-09T00:50:59.007Z,49.78
2023-08-09T00:51:59.147Z,49.19
2023-08-09T00:52:59.102Z,48.64
2023-08-09T00:53:59.158Z,49.24
2023-08-09T00:54:59.213Z,49.52
2023-08-09T00:55:59.246Z,50.16
2023-08-09T00:56:59.586Z,51.53
2023-08-09T00:57:59.341Z,48.80
2023-08-09T00:58:59.377Z,51.06
2023-08-09T00:59:59.421Z,50.38
2023-08-09T01:01:02.220Z,50.73
2023-08-09T01:01:59.479Z,48.92
2023-08-09T01:02:59.585Z,54.21
2023-08-09T01:03:59.454Z,52.02
2023-08-09T01:04:59.439Z,50.82
2023-08-09T01:05:59.433Z,51.28
2023-08-09T01:06:59.785Z,51.82
2023-08-09T01:07:59.429Z,52.89
2023-08-09T01:08:59.425Z,53.90
2023-08-09T01:09:59.409Z,51.40
2023-08-09T01:10:59.400Z,51.25
2023-08-09T01:12:08.709Z,46.61
2023-08-09T01:12:59.398Z,47.38
2023-08-09T01:13:59.387Z,48.95
2023-08-09T01:14:59.373Z,50.79
2023-08-09T01:15:59.412Z,53.11
2023-08-09T01:17:02.368Z,47.42
2023-08-09T01:17:59.376Z,49.15
2023-08-09T01:18:59.361Z,51.64
2023-08-09T01:19:59.359Z,51.74
2023-08-09T01:20:59.349Z,55.00
2023-08-09T01:21:59.737Z,55.35
2023-08-09T01:22:59.310Z,56.21
2023-08-09T01:23:59.336Z,54.17
2023-08-09T01:24:59.294Z,54.28
2023-08-09T01:25:59.295Z,54.37
2023-08-09T01:26:59.572Z,51.41
2023-08-09T01:27:59.293Z,50.73
2023-08-09T01:28:59.277Z,52.16
2023-08-09T01:29:59.263Z,50.83
2023-08-09T01:30:59.285Z,52.91
2023-08-09T01:31:59.280Z,50.28
2023-08-09T01:32:59.275Z,52.66
2023-08-09T01:33:59.261Z,53.69
2023-08-09T01:34:59.247Z,51.62
2023-08-09T01:35:59.239Z,52.53
2023-08-09T01:36:59.482Z,53.61
2023-08-09T01:37:59.216Z,51.37
2023-08-09T01:38:59.208Z,52.56
2023-08-09T01:39:59.216Z,52.16
2023-08-09T01:40:59.194Z,51.65
2023-08-09T01:41:59.227Z,47.76
2023-08-09T01:42:59.185Z,51.45
2023-08-09T01:43:59.179Z,54.60
2023-08-09T01:44:59.175Z,52.65
2023-08-09T01:45:59.148Z,51.37
2023-08-09T01:46:59.413Z,51.13
2023-08-09T01:47:59.157Z,51.29
2023-08-09T01:48:59.137Z,53.90
2023-08-09T01:49:59.141Z,52.36
2023-08-09T01:50:59.130Z,47.08
2023-08-09T01:51:59.138Z,52.74
2023-08-09T01:52:59.118Z,52.50
2023-08-09T01:53:59.136Z,52.61
2023-08-09T01:54:59.114Z,53.25
2023-08-09T01:55:59.104Z,51.07
2023-08-09T01:56:59.335Z,50.09
2023-08-09T01:57:59.074Z,52.62
2023-08-09T01:58:59.089Z,51.04
2023-08-09T01:59:59.051Z,53.03
2023-08-09T02:00:59.155Z,53.46
2023-08-09T02:01:59.197Z,52.76
2023-08-09T02:02:59.244Z,52.73
2023-08-09T02:03:59.238Z,49.89
2023-08-09T02:04:59.297Z,50.02
2023-08-09T02:05:59.327Z,52.70
2023-08-09T02:06:59.585Z,54.92
2023-08-09T02:07:59.426Z,52.76
2023-08-09T02:08:59.464Z,49.99
2023-08-09T02:09:59.500Z,53.76
2023-08-09T02:10:59.540Z,51.82
2023-08-09T02:11:59.589Z,54.30
2023-08-09T02:12:59.652Z,52.63
2023-08-09T02:13:59.685Z,51.63
2023-08-09T02:14:59.721Z,54.37
2023-08-09T02:15:59.771Z,54.99
2023-08-09T02:17:00.309Z,52.31
2023-08-09T02:17:59.924Z,50.02
2023-08-09T02:18:59.896Z,52.04
2023-08-09T02:19:59.967Z,49.22
2023-08-09T02:20:59.990Z,53.21
2023-08-09T02:22:00.045Z,49.42
2023-08-09T02:23:00.128Z,52.37
2023-08-09T02:24:00.137Z,52.71
2023-08-09T02:25:00.184Z,53.74
2023-08-09T02:26:00.237Z,55.04
2023-08-09T02:27:00.473Z,51.75
2023-08-09T02:28:00.326Z,54.10
2023-08-09T02:29:00.363Z,54.07
2023-08-09T02:30:00.394Z,51.98
2023-08-09T02:31:00.450Z,51.27
2023-08-09T02:32:00.497Z,51.74
2023-08-09T02:33:00.579Z,52.90
2023-08-09T02:34:00.585Z,54.51
2023-08-09T02:35:00.681Z,50.60
2023-08-09T02:36:00.685Z,53.08
2023-08-09T02:37:00.974Z,55.17
2023-08-09T02:38:00.775Z,55.32
2023-08-09T02:39:00.813Z,51.90
2023-08-09T02:40:00.852Z,55.15
2023-08-09T02:41:00.892Z,51.04
2023-08-09T02:42:00.953Z,54.16
2023-08-09T02:43:00.978Z,53.21
2023-08-09T02:44:01.027Z,53.09
2023-08-09T02:45:01.057Z,53.51
2023-08-09T02:46:01.126Z,51.86
2023-08-09T02:47:01.319Z,53.02
2023-08-09T02:48:01.220Z,54.06
2023-08-09T02:49:01.232Z,52.24
2023-08-09T02:50:01.282Z,53.28
2023-08-09T02:51:01.337Z,54.78
2023-08-09T02:52:01.382Z,54.09
2023-08-09T02:53:01.453Z,55.89
2023-08-09T02:54:01.463Z,52.73
2023-08-09T02:55:01.514Z,54.59
2023-08-09T02:56:01.560Z,52.89
2023-08-09T02:57:01.883Z,52.89
2023-08-09T02:58:01.647Z,53.11
2023-08-09T02:59:01.704Z,53.14
2023-08-09T03:00:01.732Z,52.09
2023-08-09T03:01:01.775Z,52.02
2023-08-09T03:02:01.840Z,51.82
2023-08-09T03:03:01.927Z,53.49
2023-08-09T03:04:01.941Z,55.34
2023-08-09T03:05:01.935Z,56.58
2023-08-09T03:06:01.993Z,51.92
2023-08-09T03:07:02.297Z,54.31
2023-08-09T03:08:02.086Z,51.47
2023-08-09T03:09:02.133Z,50.10
2023-08-09T03:10:02.181Z,52.95
2023-08-09T03:11:02.227Z,53.65
2023-08-09T03:12:02.304Z,55.67
2023-08-09T03:13:02.313Z,51.99
2023-08-09T03:14:02.365Z,51.92
2023-08-09T03:15:02.429Z,54.06
2023-08-09T03:16:02.455Z,50.08
2023-08-09T03:17:02.640Z,53.24
2023-08-09T03:18:02.553Z,55.03
2023-08-09T03:19:02.589Z,52.42
2023-08-09T03:20:02.676Z,50.37
2023-08-09T03:21:02.716Z,48.61
2023-08-09T03:22:02.724Z,54.26
2023-08-09T03:23:02.769Z,51.93
2023-08-09T03:24:02.822Z,50.68
2023-08-09T03:25:02.866Z,53.93
2023-08-09T03:26:02.941Z,51.64
2023-08-09T03:27:03.376Z,53.68
2023-08-09T03:28:03.003Z,52.11
2023-08-09T03:29:03.053Z,51.63
2023-08-09T03:30:03.081Z,52.98
2023-08-09T03:31:03.120Z,53.81
2023-08-09T03:32:03.264Z,52.79
2023-08-09T03:33:03.260Z,51.79
2023-08-09T03:34:03.275Z,52.81
2023-08-09T03:35:03.296Z,54.84
2023-08-09T03:36:03.381Z,53.74
2023-08-09T03:37:03.487Z,52.84
2023-08-09T03:38:03.444Z,54.18
2023-08-09T03:39:03.513Z,54.05
2023-08-09T03:40:03.547Z,52.05
2023-08-09T03:41:03.571Z,53.92
2023-08-09T03:42:03.630Z,53.33
2023-08-09T03:43:03.661Z,52.04
2023-08-09T03:44:03.709Z,53.61
2023-08-09T03:45:03.751Z,57.18
2023-08-09T03:46:03.854Z,56.10
2023-08-09T03:47:04.212Z,55.18
2023-08-09T03:48:03.892Z,53.41
2023-08-09T03:49:03.925Z,52.55
2023-08-09T03:50:03.974Z,54.42
2023-08-09T03:51:04.024Z,56.93
2023-08-09T03:52:04.057Z,53.38
2023-08-09T03:53:04.104Z,55.02
2023-08-09T03:54:04.178Z,55.73
2023-08-09T03:55:04.193Z,53.00
2023-08-09T03:56:04.232Z,53.15
2023-08-09T03:57:04.599Z,53.87
2023-08-09T03:58:04.387Z,54.16
2023-08-09T03:59:04.373Z,55.15
2023-08-09T04:00:04.413Z,53.27
2023-08-09T04:01:04.519Z,56.48
2023-08-09T04:02:04.502Z,53.51
2023-08-09T04:03:04.563Z,56.04
2023-08-09T04:04:06.556Z,50.29
2023-08-09T04:05:04.616Z,50.57
2023-08-09T04:06:04.592Z,50.71
2023-08-09T04:07:04.891Z,51.97
2023-08-09T04:08:04.572Z,53.98
2023-08-09T04:09:04.566Z,55.14
2023-08-09T04:10:04.582Z,53.52
2023-08-09T04:11:04.558Z,55.52
2023-08-09T04:12:04.547Z,55.47
2023-08-09T04:13:04.566Z,57.28
2023-08-09T04:14:04.547Z,54.16
2023-08-09T04:15:04.539Z,54.27
2023-08-09T04:16:04.574Z,53.73
2023-08-09T04:17:04.519Z,57.00
2023-08-09T04:18:04.538Z,55.97
2023-08-09T04:19:04.529Z,51.90
2023-08-09T04:20:04.505Z,53.98
2023-08-09T04:21:04.494Z,54.02
2023-08-09T04:22:04.517Z,55.77
2023-08-09T04:23:04.471Z,52.16
2023-08-09T04:24:04.465Z,56.27
2023-08-09T04:25:04.463Z,54.57
2023-08-09T04:26:04.457Z,53.68
2023-08-09T04:27:04.677Z,58.34
2023-08-09T04:28:04.438Z,57.45
2023-08-09T04:29:04.465Z,56.95
2023-08-09T04:30:04.435Z,53.30
2023-08-09T04:31:04.525Z,55.32
2023-08-09T04:32:04.449Z,54.41
2023-08-09T04:33:04.510Z,57.85
2023-08-09T04:34:04.523Z,55.82
2023-08-09T04:35:04.630Z,54.35
2023-08-09T04:36:04.624Z,53.51
2023-08-09T04:37:05.280Z,54.86
2023-08-09T04:38:04.735Z,54.00
2023-08-09T04:39:04.783Z,55.76
2023-08-09T04:40:04.822Z,55.59
2023-08-09T04:41:04.884Z,54.82
2023-08-09T04:42:04.902Z,58.32
2023-08-09T04:43:04.991Z,54.85
2023-08-09T04:44:05.026Z,57.56
2023-08-09T04:45:05.049Z,56.17
2023-08-09T04:46:05.158Z,52.74
2023-08-09T04:47:05.161Z,52.69
2023-08-09T04:48:05.228Z,53.89
2023-08-09T04:49:05.226Z,53.20
2023-08-09T04:50:05.293Z,57.50
2023-08-09T04:51:05.370Z,56.04
2023-08-09T04:52:05.572Z,57.79
2023-08-09T04:53:05.448Z,53.14
2023-08-09T04:54:05.463Z,55.60
2023-08-09T04:55:05.561Z,55.15
2023-08-09T04:56:05.547Z,52.66
2023-08-09T04:57:05.835Z,53.59
2023-08-09T04:58:05.723Z,53.68
2023-08-09T04:59:05.706Z,56.04
2023-08-09T05:00:05.745Z,53.79
2023-08-09T05:01:05.838Z,58.24
2023-08-09T05:02:05.843Z,53.65
2023-08-09T05:03:05.953Z,54.97
2023-08-09T05:04:05.925Z,54.29
2023-08-09T05:05:05.977Z,54.67
2023-08-09T05:06:06.009Z,55.74
2023-08-09T05:07:06.159Z,53.67
2023-08-09T05:08:06.097Z,52.37
2023-08-09T05:09:06.143Z,56.04
2023-08-09T05:10:06.199Z,53.39
2023-08-09T05:11:06.245Z,53.93
2023-08-09T05:12:06.277Z,54.02
2023-08-09T05:13:06.345Z,54.54
2023-08-09T05:14:06.369Z,53.60
2023-08-09T05:15:06.423Z,53.33
2023-08-09T05:16:06.469Z,51.61
2023-08-09T05:17:06.567Z,52.71
2023-08-09T05:18:06.585Z,52.16
2023-08-09T05:19:06.606Z,51.79
2023-08-09T05:20:06.663Z,55.28
2023-08-09T05:21:06.695Z,53.26
2023-08-09T05:22:06.748Z,52.20
2023-08-09T05:23:06.820Z,52.85
2023-08-09T05:24:06.848Z,49.75
2023-08-09T05:25:06.956Z,52.29
2023-08-09T05:26:06.946Z,52.35
2023-08-09T05:27:07.009Z,53.36
2023-08-09T05:28:07.040Z,53.55
2023-08-09T05:29:07.081Z,52.90
2023-08-09T05:30:07.144Z,56.41
2023-08-09T05:31:07.230Z,56.21
2023-08-09T05:32:07.216Z,51.82
2023-08-09T05:33:07.303Z,50.32
2023-08-09T05:34:07.308Z,54.47
2023-08-09T05:35:07.347Z,50.76
2023-08-09T05:36:07.403Z,52.41
2023-08-09T05:37:07.551Z,51.23
2023-08-09T05:38:07.514Z,52.68
2023-08-09T05:39:07.553Z,51.88
2023-08-09T05:40:07.596Z,51.48
2023-08-09T05:41:07.659Z,52.59
2023-08-09T05:42:07.695Z,53.00
2023-08-09T05:43:07.752Z,54.11
2023-08-09T05:44:07.814Z,52.94
2023-08-09T05:45:07.836Z,50.72
2023-08-09T05:46:07.912Z,53.25
2023-08-09T05:47:08.707Z,51.44
2023-08-09T05:48:07.966Z,50.58
2023-08-09T05:49:08.005Z,51.43
2023-08-09T05:50:08.048Z,51.80
2023-08-09T05:51:08.100Z,53.14
2023-08-09T05:52:08.148Z,49.96
2023-08-09T05:53:08.185Z,52.64
2023-08-09T05:54:08.236Z,51.09
2023-08-09T05:55:08.270Z,53.50
2023-08-09T05:56:08.317Z,52.81
2023-08-09T05:57:08.383Z,50.25
2023-08-09T05:58:08.402Z,51.92
2023-08-09T05:59:08.483Z,53.40
2023-08-09T06:00:08.500Z,53.43
2023-08-09T06:01:08.628Z,53.95
2023-08-09T06:02:08.641Z,53.05
2023-08-09T06:03:08.681Z,54.69
2023-08-09T06:04:08.772Z,53.18
2023-08-09T06:05:08.717Z,52.32
2023-08-09T06:06:08.794Z,54.23
2023-08-09T06:07:08.810Z,51.89
2023-08-09T06:08:08.878Z,52.03
2023-08-09T06:09:08.911Z,53.27
2023-08-09T06:10:08.959Z,52.22
2023-08-09T06:11:09.021Z,53.60
2023-08-09T06:12:09.056Z,52.22
2023-08-09T06:13:09.117Z,52.30
2023-08-09T06:14:09.168Z,51.97
2023-08-09T06:15:09.196Z,54.01
2023-08-09T06:16:09.275Z,54.98
2023-08-09T06:17:09.282Z,52.31
2023-08-09T06:18:09.394Z,54.51
2023-08-09T06:19:09.479Z,53.21
2023-08-09T06:20:09.431Z,51.77
2023-08-09T06:21:09.489Z,51.30
2023-08-09T06:22:09.513Z,53.66
2023-08-09T06:23:09.568Z,50.23
2023-08-09T06:24:09.623Z,52.56
2023-08-09T06:25:09.656Z,53.72
2023-08-09T06:26:09.752Z,53.73
2023-08-09T06:27:09.756Z,51.64
2023-08-09T06:28:09.799Z,50.82
2023-08-09T06:29:09.852Z,50.76
2023-08-09T06:30:09.945Z,52.66
2023-08-09T06:31:09.973Z,50.65
2023-08-09T06:32:10.000Z,53.51
2023-08-09T06:33:10.025Z,52.64
2023-08-09T06:34:10.105Z,52.21
2023-08-09T06:35:10.125Z,51.70
2023-08-09T06:36:10.165Z,51.64
2023-08-09T06:37:10.219Z,51.37
2023-08-09T06:38:15.719Z,52.09
2023-08-09T06:39:11.252Z,52.36
2023-08-09T06:40:10.261Z,52.77
2023-08-09T06:41:10.240Z,53.26
2023-08-09T06:42:10.256Z,52.96
2023-08-09T06:43:10.233Z,52.52
2023-08-09T06:44:10.233Z,52.35
2023-08-09T06:45:10.222Z,47.66
2023-08-09T06:46:10.216Z,50.85
2023-08-09T06:47:10.209Z,48.28
2023-08-09T06:48:10.314Z,51.75
2023-08-09T06:49:10.192Z,53.25
2023-08-09T06:50:10.209Z,48.98
2023-08-09T06:51:10.239Z,49.68
2023-08-09T06:52:10.284Z,51.98
2023-08-09T06:53:10.375Z,49.58
2023-08-09T06:54:10.373Z,49.04
2023-08-09T06:55:10.405Z,53.15
2023-08-09T06:56:10.478Z,48.67
2023-08-09T06:57:10.512Z,52.95
2023-08-09T06:58:10.542Z,51.13
2023-08-09T06:59:10.589Z,50.59
2023-08-09T07:00:10.633Z,48.58
2023-08-09T07:01:10.844Z,52.53
2023-08-09T07:02:10.730Z,52.08
2023-08-09T07:03:10.844Z,50.11
2023-08-09T07:04:10.845Z,50.21
2023-08-09T07:05:10.856Z,53.64
2023-08-09T07:06:10.895Z,52.54
2023-08-09T07:07:10.991Z,52.68
2023-08-09T07:08:11.011Z,49.88
2023-08-09T07:09:11.042Z,52.60
2023-08-09T07:10:11.092Z,50.80
2023-08-09T07:11:11.197Z,48.98
2023-08-09T07:12:11.193Z,50.98
2023-08-09T07:13:11.245Z,52.44
2023-08-09T07:14:11.273Z,52.20
2023-08-09T07:15:11.324Z,51.82
2023-08-09T07:16:11.398Z,52.33
2023-08-09T07:17:11.411Z,52.03
2023-08-09T07:18:11.441Z,51.73
2023-08-09T07:19:11.502Z,53.12
2023-08-09T07:20:11.547Z,51.85
2023-08-09T07:21:11.571Z,51.72
2023-08-09T07:22:11.627Z,49.73
2023-08-09T07:23:11.693Z,47.49
2023-08-09T07:24:11.715Z,50.56
2023-08-09T07:25:11.758Z,50.22
2023-08-09T07:26:11.796Z,51.05
2023-08-09T07:27:11.863Z,48.39
2023-08-09T07:28:11.894Z,48.55
2023-08-09T07:29:11.932Z,48.12
2023-08-09T07:30:12.066Z,47.88
2023-08-09T07:31:12.035Z,45.11
2023-08-09T07:32:12.148Z,50.17
2023-08-09T07:33:12.147Z,45.77
2023-08-09T07:34:12.171Z,48.69
2023-08-09T07:35:12.240Z,48.77
2023-08-09T07:36:12.254Z,47.20
2023-08-09T07:37:12.343Z,49.80
2023-08-09T07:38:12.349Z,49.44
2023-08-09T07:39:12.402Z,48.15
2023-08-09T07:40:12.456Z,46.62
2023-08-09T07:41:12.511Z,49.00
2023-08-09T07:42:12.528Z,47.75
2023-08-09T07:43:12.581Z,47.21
2023-08-09T07:44:12.622Z,47.19
2023-08-09T07:45:12.718Z,47.84
2023-08-09T07:46:12.747Z,50.23
2023-08-09T07:47:12.762Z,49.64
2023-08-09T07:48:12.813Z,47.79
2023-08-09T07:49:12.850Z,50.78
2023-08-09T07:50:12.925Z,47.98
2023-08-09T07:51:13.173Z,51.50
2023-08-09T07:52:12.993Z,48.00
2023-08-09T07:53:13.048Z,48.35
2023-08-09T07:54:13.077Z,47.94
2023-08-09T07:55:13.135Z,50.95
2023-08-09T07:56:13.166Z,49.83
2023-08-09T07:57:13.226Z,49.94
2023-08-09T07:58:13.259Z,49.89
2023-08-09T07:59:13.319Z,48.27
2023-08-09T08:00:15.693Z,45.98
2023-08-09T08:01:13.369Z,48.92
2023-08-09T08:02:13.333Z,50.84
2023-08-09T08:03:13.430Z,50.53
2023-08-09T08:04:13.388Z,51.73
2023-08-09T08:05:13.319Z,54.10
2023-08-09T08:06:13.298Z,54.35
2023-08-09T08:07:13.294Z,52.53
2023-08-09T08:08:13.293Z,52.01
2023-08-09T08:09:13.332Z,51.81
2023-08-09T08:10:13.294Z,51.99
2023-08-09T08:11:13.277Z,50.28
2023-08-09T08:12:22.609Z,51.08
2023-08-09T08:13:14.261Z,51.62
2023-08-09T08:14:14.924Z,52.12
2023-08-09T08:15:13.260Z,52.75
2023-08-09T08:16:13.308Z,53.21
2023-08-09T08:17:13.233Z,52.14
2023-08-09T08:18:13.251Z,53.30
2023-08-09T08:19:13.873Z,52.67
2023-08-09T08:20:13.204Z,54.68
2023-08-09T08:21:13.237Z,50.13
2023-08-09T08:22:13.197Z,54.79
2023-08-09T08:23:13.233Z,54.33
2023-08-09T08:24:13.209Z,53.99
2023-08-09T08:25:13.259Z,53.60
2023-08-09T08:26:13.313Z,54.73
2023-08-09T08:27:13.382Z,55.65
2023-08-09T08:28:13.403Z,51.97
2023-08-09T08:29:13.462Z,52.75
2023-08-09T08:30:13.504Z,51.04
2023-08-09T08:31:13.584Z,51.84
2023-08-09T08:32:13.617Z,52.63
2023-08-09T08:33:15.321Z,52.45
2023-08-09T08:34:13.696Z,53.40
2023-08-09T08:35:13.721Z,54.18
2023-08-09T08:36:29.320Z,53.38
2023-08-09T08:37:14.765Z,53.59
2023-08-09T08:38:13.756Z,53.68
2023-08-09T08:39:13.758Z,54.14
2023-08-09T08:40:13.762Z,53.14
2023-08-09T08:41:13.731Z,51.17
2023-08-09T08:42:13.732Z,48.76
2023-08-09T08:43:13.714Z,47.38
2023-08-09T08:44:13.723Z,51.58
2023-08-09T08:45:13.724Z,52.21
2023-08-09T08:46:13.709Z,48.32
2023-08-09T08:47:13.691Z,49.41
2023-08-09T08:48:13.701Z,48.06
2023-08-09T08:49:13.776Z,46.94
2023-08-09T08:50:13.811Z,47.19
2023-08-09T08:51:13.831Z,49.44
2023-08-09T08:52:13.882Z,49.85
2023-08-09T08:53:13.944Z,47.61
2023-08-09T08:54:13.978Z,50.21
2023-08-09T08:55:14.026Z,46.56
2023-08-09T08:56:14.161Z,46.85
2023-08-09T08:57:14.112Z,49.16
2023-08-09T08:58:14.163Z,51.11
2023-08-09T08:59:14.219Z,48.21
2023-08-09T09:00:25.233Z,53.79
2023-08-09T09:01:15.250Z,53.87
2023-08-09T09:02:14.248Z,52.14
2023-08-09T09:03:14.369Z,52.83
2023-08-09T09:04:14.242Z,54.32
2023-08-09T09:05:14.237Z,48.36
2023-08-09T09:06:14.207Z,53.32
2023-08-09T09:07:14.203Z,50.35
2023-08-09T09:08:14.261Z,51.43
2023-08-09T09:09:14.193Z,51.64
2023-08-09T09:10:14.189Z,52.29
2023-08-09T09:11:14.171Z,50.37
2023-08-09T09:12:14.164Z,53.06
2023-08-09T09:13:14.205Z,48.50
2023-08-09T09:14:14.258Z,51.86
2023-08-09T09:15:14.320Z,52.92
2023-08-09T09:16:14.361Z,49.27
2023-08-09T09:17:14.394Z,50.36
2023-08-09T09:18:14.434Z,48.68
2023-08-09T09:19:14.609Z,53.92
2023-08-09T09:20:14.685Z,53.65
2023-08-09T09:21:14.574Z,55.78
2023-08-09T09:22:14.630Z,50.01
2023-08-09T09:23:14.709Z,55.62
2023-08-09T09:24:14.725Z,56.41
2023-08-09T09:25:14.762Z,51.54
2023-08-09T09:26:14.812Z,55.60
2023-08-09T09:27:14.836Z,56.00
2023-08-09T09:28:14.877Z,54.60
2023-08-09T09:29:14.920Z,53.97
2023-08-09T09:30:15.020Z,51.05
2023-08-09T09:31:15.140Z,56.94
2023-08-09T09:32:15.057Z,58.59
2023-08-09T09:33:15.135Z,51.77
2023-08-09T09:34:15.191Z,56.68
2023-08-09T09:35:15.204Z,55.22
2023-08-09T09:36:15.277Z,54.26
2023-08-09T09:37:15.290Z,58.50
2023-08-09T09:38:15.336Z,57.87
2023-08-09T09:39:15.371Z,55.76
2023-08-09T09:40:15.428Z,55.80
2023-08-09T09:41:15.480Z,55.42
2023-08-09T09:42:15.518Z,57.04
2023-08-09T09:43:15.554Z,56.38
2023-08-09T09:44:15.605Z,54.84
2023-08-09T09:45:15.661Z,55.70
2023-08-09T09:46:26.031Z,54.66
2023-08-09T09:47:16.685Z,54.88
2023-08-09T09:48:15.713Z,55.15
2023-08-09T09:49:15.668Z,54.62
2023-08-09T09:50:15.687Z,56.01
2023-08-09T09:51:15.660Z,56.94
2023-08-09T09:52:15.675Z,54.12
2023-08-09T09:53:15.642Z,50.71
2023-08-09T09:54:16.154Z,52.82
2023-08-09T09:55:15.638Z,50.14
2023-08-09T09:56:15.656Z,52.73
2023-08-09T09:57:15.614Z,53.05
2023-08-09T09:58:15.614Z,53.05
2023-08-09T09:59:15.653Z,55.45
2023-08-09T10:00:15.712Z,54.62
2023-08-09T10:01:15.812Z,54.33
2023-08-09T10:02:15.786Z,55.00
2023-08-09T10:03:15.833Z,55.03
2023-08-09T10:04:15.870Z,54.67
2023-08-09T10:05:15.950Z,54.44
2023-08-09T10:06:16.071Z,54.55
2023-08-09T10:07:15.998Z,52.13
2023-08-09T10:08:16.071Z,52.44
2023-08-09T10:09:16.117Z,53.97
2023-08-09T10:10:16.185Z,52.27
2023-08-09T10:11:16.184Z,54.49
2023-08-09T10:12:16.386Z,56.17
2023-08-09T10:13:16.282Z,54.52
2023-08-09T10:14:16.315Z,55.35
2023-08-09T10:15:16.356Z,55.77
2023-08-09T10:16:16.441Z,56.30
2023-08-09T10:17:16.476Z,53.19
2023-08-09T10:18:17.141Z,54.69
2023-08-09T10:19:16.539Z,50.83
2023-08-09T10:20:16.575Z,53.32
2023-08-09T10:21:16.634Z,55.42
2023-08-09T10:22:16.669Z,55.68
2023-08-09T10:23:16.702Z,52.23
2023-08-09T10:24:16.758Z,55.59
2023-08-09T10:25:16.809Z,54.31
2023-08-09T10:26:16.898Z,51.06
2023-08-09T10:27:16.914Z,54.77
2023-08-09T10:28:16.945Z,54.03
2023-08-09T10:29:17.079Z,54.13
2023-08-09T10:30:17.039Z,54.59
2023-08-09T10:31:21.306Z,55.72
2023-08-09T10:32:18.365Z,55.84
2023-08-09T10:33:17.105Z,55.86
2023-08-09T10:34:17.075Z,56.14
2023-08-09T10:35:17.057Z,56.35
2023-08-09T10:36:17.047Z,53.30
2023-08-09T10:37:17.034Z,53.46
2023-08-09T10:38:17.034Z,54.10
2023-08-09T10:39:17.036Z,50.99
2023-08-09T10:40:17.142Z,54.41
2023-08-09T10:41:17.032Z,50.13
2023-08-09T10:42:17.019Z,55.40
2023-08-09T10:43:17.000Z,53.84
2023-08-09T10:44:17.044Z,55.13
2023-08-09T10:45:17.071Z,50.89
2023-08-09T10:46:17.170Z,51.29
2023-08-09T10:47:17.244Z,53.88
2023-08-09T10:48:17.225Z,52.60
2023-08-09T10:49:17.257Z,54.04
2023-08-09T10:50:17.296Z,50.43
2023-08-09T10:51:17.360Z,51.28
2023-08-09T10:52:19.394Z,55.27
2023-08-09T10:53:17.378Z,53.41
2023-08-09T10:54:17.362Z,51.56
2023-08-09T10:55:17.354Z,54.07
2023-08-09T10:56:17.360Z,53.14
2023-08-09T10:57:17.365Z,54.38
2023-08-09T10:58:17.342Z,53.07
2023-08-09T10:59:17.364Z,52.86
2023-08-09T11:00:17.331Z,55.20
2023-08-09T11:01:17.459Z,53.96
2023-08-09T11:02:17.370Z,50.46
2023-08-09T11:03:17.442Z,50.71
2023-08-09T11:04:17.460Z,50.76
2023-08-09T11:05:17.290Z,51.03
2023-08-09T11:06:17.296Z,53.29
2023-08-09T11:07:17.305Z,50.87
2023-08-09T11:08:17.412Z,50.89
2023-08-09T11:09:17.274Z,48.36
2023-08-09T11:10:17.619Z,50.67
2023-08-09T11:11:17.262Z,49.90
2023-08-09T11:12:17.241Z,50.75
2023-08-09T11:13:17.261Z,48.68
2023-08-09T11:14:17.243Z,53.57
2023-08-09T11:15:17.224Z,53.84
2023-08-09T11:16:20.622Z,52.56
2023-08-09T11:17:18.258Z,52.88
2023-08-09T11:18:17.264Z,53.72
2023-08-09T11:19:32.449Z,53.22
2023-08-09T11:20:18.201Z,52.97
2023-08-09T11:21:17.196Z,53.71
2023-08-09T11:22:17.186Z,54.29
2023-08-09T11:23:17.169Z,55.73
2023-08-09T11:24:17.183Z,55.68
2023-08-09T11:25:17.175Z,57.05
2023-08-09T11:26:17.203Z,57.67
2023-08-09T11:27:17.153Z,55.12
2023-08-09T11:28:17.144Z,57.04
2023-08-09T11:29:17.151Z,56.38
2023-08-09T11:30:17.146Z,54.00
2023-08-09T11:31:17.149Z,54.43
2023-08-09T11:32:17.152Z,55.26
2023-08-09T11:33:17.193Z,56.79
2023-08-09T11:34:17.249Z,54.70
2023-08-09T11:35:17.283Z,54.24
2023-08-09T11:36:17.337Z,55.33
2023-08-09T11:37:17.390Z,54.73
2023-08-09T11:38:17.425Z,52.37
2023-08-09T11:39:17.463Z,54.06
2023-08-09T11:40:17.521Z,52.30
2023-08-09T11:42:17.579Z,57.48
2023-08-09T11:43:17.540Z,57.66
2023-08-09T11:44:17.544Z,55.02
2023-08-09T11:45:17.583Z,56.65
2023-08-09T11:46:17.519Z,60.43
2023-08-09T11:47:17.544Z,58.38
2023-08-09T11:48:17.521Z,53.91
2023-08-09T11:49:17.525Z,56.72
2023-08-09T11:50:17.504Z,54.41
2023-08-09T11:51:17.495Z,55.72
2023-08-09T11:52:17.487Z,58.99
2023-08-09T11:53:17.489Z,52.74
2023-08-09T11:54:17.478Z,54.97
2023-08-09T11:55:17.508Z,57.00
2023-08-09T11:56:17.487Z,54.89
2023-08-09T11:57:17.465Z,54.37
2023-08-09T11:58:17.457Z,55.42
2023-08-09T11:59:17.440Z,54.97
2023-08-09T12:00:17.686Z,54.05
2023-08-09T12:01:17.512Z,56.33
2023-08-09T12:02:17.432Z,57.91
2023-08-09T12:03:17.408Z,57.07
2023-08-09T12:04:17.544Z,54.21
2023-08-09T12:05:17.476Z,52.25
2023-08-09T12:06:17.413Z,54.27
2023-08-09T12:07:17.411Z,54.21
2023-08-09T12:08:17.381Z,53.86
2023-08-09T12:09:17.434Z,54.34
2023-08-09T12:10:17.409Z,52.72
2023-08-09T12:11:17.378Z,53.92
2023-08-09T12:12:17.382Z,54.12
2023-08-09T12:13:17.373Z,57.71
2023-08-09T12:14:17.355Z,53.15
2023-08-09T12:15:17.382Z,57.55
2023-08-09T12:16:17.427Z,54.86
2023-08-09T12:17:17.806Z,52.40
2023-08-09T12:18:17.472Z,58.02
2023-08-09T12:19:17.514Z,53.37
2023-08-09T12:20:17.547Z,54.33
2023-08-09T12:21:17.661Z,54.51
2023-08-09T12:22:17.633Z,54.84
2023-08-09T12:23:17.703Z,53.59
2023-08-09T12:24:17.726Z,52.37
2023-08-09T12:25:17.744Z,52.94
2023-08-09T12:26:17.801Z,52.59
2023-08-09T12:27:17.876Z,51.95
2023-08-09T12:28:17.894Z,51.26
2023-08-09T12:29:17.927Z,50.86
2023-08-09T12:30:17.952Z,52.31
2023-08-09T12:31:18.038Z,53.87
2023-08-09T12:32:18.088Z,50.88
2023-08-09T12:33:18.070Z,53.82
2023-08-09T12:34:18.109Z,54.23
2023-08-09T12:35:18.177Z,55.33
2023-08-09T12:36:18.306Z,54.78
2023-08-09T12:37:18.309Z,51.91
2023-08-09T12:38:18.289Z,53.97
2023-08-09T12:39:18.313Z,52.08
2023-08-09T12:40:18.344Z,54.96
2023-08-09T12:41:18.396Z,53.67
2023-08-09T12:42:18.460Z,55.22
2023-08-09T12:43:18.490Z,52.59
2023-08-09T12:44:18.531Z,56.72
2023-08-09T12:45:18.576Z,54.65
2023-08-09T12:46:18.720Z,54.23
2023-08-09T12:47:18.670Z,53.43
2023-08-09T12:49:28.246Z,25.00
2023-08-09T12:50:28.236Z,25.00
2023-08-09T12:51:28.226Z,25.00
2023-08-09T12:52:28.257Z,25.00
2023-08-09T12:53:29.365Z,25.00
2023-08-09T12:54:28.207Z,28.56
2023-08-09T12:55:28.276Z,25.00